This is the latest recevied weather packets stored in our database for station/object SP2WPY-13. If no packets are shown the sender has not sent any weather packets the latest 10 day(s).
| Time | Temp. | Humidity | Pressure | Rain* | Wind** | Luminosity | Snow |
|---|---|---|---|---|---|---|---|
| 1787761837 | 18.33° C | 75% | 1027.7 hPa | - | - | - | - |
| 1787761517 | 18.33° C | 76% | 1027.7 hPa | - | - | - | - |
| 1787761243 | 17.78° C | 79% | 1027.7 hPa | - | - | - | - |
| 1787760924 | 17.78° C | 78% | 1027.7 hPa | - | - | - | - |
| 1787760603 | 18.33° C | 76% | 1027.7 hPa | - | - | - | - |
| 1787760330 | 18.33° C | 76% | 1027.6 hPa | - | - | - | - |
| 1787760009 | 18.33° C | 78% | 1027.6 hPa | - | - | - | - |
| 1787759735 | 17.78° C | 83% | 1027.7 hPa | - | - | - | - |
| 1787759417 | 17.78° C | 81% | 1027.7 hPa | - | - | - | - |
| 1787759142 | 18.33° C | 78% | 1027.7 hPa | - | - | - | - |
| 1787758822 | 17.78° C | 80% | 1027.7 hPa | - | - | - | - |
| 1787758502 | 17.78° C | 79% | 1027.7 hPa | - | - | - | - |
| 1787758229 | 17.78° C | 81% | 1027.7 hPa | - | - | - | - |
| 1787757909 | 17.22° C | 79% | 1027.8 hPa | - | - | - | - |
| 1787757636 | 17.78° C | 78% | 1027.8 hPa | - | - | - | - |
| 1787757315 | 18.33° C | 77% | 1027.7 hPa | - | - | - | - |
| 1787757041 | 18.33° C | 76% | 1027.7 hPa | - | - | - | - |
| 1787756722 | 18.33° C | 74% | 1027.8 hPa | - | - | - | - |
| 1787756402 | 17.78° C | 76% | 1027.9 hPa | - | - | - | - |
| 1787756128 | 18.33° C | 73% | 1027.8 hPa | - | - | - | - |
| 1787755809 | 18.89° C | 71% | 1027.8 hPa | - | - | - | - |
| 1787755534 | 19.44° C | 70% | 1027.8 hPa | - | - | - | - |
| 1787755215 | 19.44° C | 71% | 1027.8 hPa | - | - | - | - |
| 1787754941 | 19.44° C | 72% | 1027.9 hPa | - | - | - | - |
| 1787754621 | 18.33° C | 74% | 1027.9 hPa | - | - | - | - |
* Rain since midnight (hover to see other rain measurements)
** Current wind speed in m/s (hover to see current wind gust speed)